Time;durP1;ratioP1;P1;durP2;ratioP2;P2;SDS_P1;SDS_P2;PMS_P1;PMS_P2;Temp;Humidity;BMP_temperature;BMP_pressure;BME280_temperature;BME280_humidity;BME280_pressure;Samples;Min_cycle;Max_cycle;Signal;HPM_P1;HPM_P2
2023/04/15 00:00:57;;;;;;;9.18;3.40;;;;;;;;;;4834424;29;20038;-82
2023/04/15 00:03:23;;;;;;;9.65;3.28;;;;;;;;;;4819479;29;20489;-83
2023/04/15 00:05:49;;;;;;;11.77;3.80;;;;;;;;;;4815316;29;20475;-83
2023/04/15 00:08:15;;;;;;;9.70;3.80;;;;;;;;;;4817105;29;20451;-85
2023/04/15 00:10:43;;;;;;;13.98;3.45;;;;;;;;;;4813453;29;20061;-84
2023/04/15 00:13:09;;;;;;;11.02;3.40;;;;;;;;;;4803213;29;20081;-85
2023/04/15 00:15:36;;;;;;;8.25;3.28;;;;;;;;;;4833984;29;20121;-80
2023/04/15 00:18:03;;;;;;;14.80;3.92;;;;;;;;;;4813136;29;20038;-83
2023/04/15 00:20:29;;;;;;;10.38;3.92;;;;;;;;;;4804982;29;20034;-83
2023/04/15 00:22:55;;;;;;;8.93;3.20;;;;;;;;;;4820417;29;20030;-81
2023/04/15 00:25:22;;;;;;;10.77;3.58;;;;;;;;;;4817938;29;20030;-82
2023/04/15 00:27:48;;;;;;;9.55;3.65;;;;;;;;;;4814644;29;20030;-81
2023/04/15 00:30:14;;;;;;;8.52;3.05;;;;;;;;;;4815616;29;20066;-82
2023/04/15 00:32:41;;;;;;;8.82;2.72;;;;;;;;;;4817405;29;20125;-81
2023/04/15 00:35:07;;;;;;;9.55;3.28;;;;;;;;;;4812797;29;20392;-83
2023/04/15 00:37:34;;;;;;;8.80;3.28;;;;;;;;;;4812883;29;20030;-80
2023/04/15 00:40:00;;;;;;;9.43;3.83;;;;;;;;;;4819238;29;20034;-84
2023/04/15 00:42:27;;;;;;;12.15;3.90;;;;;;;;;;4814065;29;20413;-82
2023/04/15 00:44:53;;;;;;;9.40;3.53;;;;;;;;;;4817450;29;20038;-83
2023/04/15 00:47:20;;;;;;;10.23;3.60;;;;;;;;;;4833354;29;20045;-79
2023/04/15 00:49:46;;;;;;;10.20;3.67;;;;;;;;;;4817858;29;20038;-82
2023/04/15 00:52:12;;;;;;;18.38;4.97;;;;;;;;;;4834671;29;20026;-84
2023/04/15 00:54:38;;;;;;;12.65;4.18;;;;;;;;;;4822852;29;20095;-84
2023/04/15 00:57:05;;;;;;;10.27;3.92;;;;;;;;;;4841235;29;20024;-84
2023/04/15 00:59:32;;;;;;;9.98;3.30;;;;;;;;;;4818090;29;20032;-83
2023/04/15 01:01:59;;;;;;;9.32;3.65;;;;;;;;;;4820312;29;20037;-84
2023/04/15 01:04:25;;;;;;;13.27;3.58;;;;;;;;;;4834761;29;20090;-83
2023/04/15 01:06:51;;;;;;;8.68;3.55;;;;;;;;;;4817936;29;20030;-84
2023/04/15 01:09:17;;;;;;;10.45;4.07;;;;;;;;;;4819397;29;20060;-86
2023/04/15 01:11:44;;;;;;;8.55;3.40;;;;;;;;;;4809148;29;20050;-83
2023/04/15 01:14:10;;;;;;;11.68;4.43;;;;;;;;;;4805855;29;20038;-81
2023/04/15 01:16:38;;;;;;;12.45;4.15;;;;;;;;;;4811208;29;20718;-83
2023/04/15 01:19:06;;;;;;;12.43;4.72;;;;;;;;;;4824535;29;20033;-80
2023/04/15 01:21:32;;;;;;;8.52;4.00;;;;;;;;;;4817887;29;20023;-83
2023/04/15 01:23:58;;;;;;;8.48;4.30;;;;;;;;;;4808730;29;20476;-81
2023/04/15 01:26:24;;;;;;;11.88;4.85;;;;;;;;;;4816476;29;20030;-81
2023/04/15 01:28:55;;;;;;;10.20;4.35;;;;;;;;;;4834154;29;20030;-82
2023/04/15 01:31:21;;;;;;;12.77;4.80;;;;;;;;;;4836485;29;20042;-82
2023/04/15 01:33:47;;;;;;;15.25;5.65;;;;;;;;;;4822299;29;20041;-81
2023/04/15 01:36:13;;;;;;;12.20;3.95;;;;;;;;;;4817896;29;20026;-79
2023/04/15 01:38:40;;;;;;;14.50;5.38;;;;;;;;;;4823028;29;20038;-82
2023/04/15 01:41:07;;;;;;;13.00;4.55;;;;;;;;;;4826286;29;20034;-84
2023/04/15 01:43:33;;;;;;;12.20;4.75;;;;;;;;;;4807593;29;20132;-78
2023/04/15 01:45:59;;;;;;;14.98;5.93;;;;;;;;;;4820392;29;20038;-83
2023/04/15 01:48:26;;;;;;;11.25;5.13;;;;;;;;;;4822894;29;20428;-83
2023/04/15 01:50:52;;;;;;;12.73;4.63;;;;;;;;;;4817226;29;20027;-83
2023/04/15 01:53:18;;;;;;;10.57;4.90;;;;;;;;;;4819738;29;20057;-82
2023/04/15 01:55:44;;;;;;;11.95;5.07;;;;;;;;;;4813362;29;20041;-84
2023/04/15 01:58:11;;;;;;;15.45;5.18;;;;;;;;;;4835009;29;20033;-82
2023/04/15 02:00:37;;;;;;;10.02;4.93;;;;;;;;;;4812335;29;20492;-82
2023/04/15 02:03:03;;;;;;;12.25;4.68;;;;;;;;;;4831759;29;20034;-82
2023/04/15 02:05:29;;;;;;;13.43;5.65;;;;;;;;;;4835811;29;20133;-84
2023/04/15 02:07:55;;;;;;;9.50;5.63;;;;;;;;;;4833090;29;20034;-86
2023/04/15 02:10:22;;;;;;;15.32;6.10;;;;;;;;;;4815902;29;20115;-81
2023/04/15 02:12:48;;;;;;;10.13;6.05;;;;;;;;;;4858860;29;20045;-78
2023/04/15 02:15:14;;;;;;;12.68;5.82;;;;;;;;;;4837495;29;20042;-84
2023/04/15 02:17:44;;;;;;;10.88;5.45;;;;;;;;;;4808358;29;20057;-80
2023/04/15 02:20:10;;;;;;;11.45;6.03;;;;;;;;;;4855456;29;20034;-81
2023/04/15 02:22:37;;;;;;;11.80;6.07;;;;;;;;;;4832643;29;20082;-84
2023/04/15 02:25:03;;;;;;;12.23;7.40;;;;;;;;;;4820843;29;20038;-86
2023/04/15 02:27:29;;;;;;;16.95;6.60;;;;;;;;;;4816312;29;20034;-82
2023/04/15 02:29:55;;;;;;;13.65;6.70;;;;;;;;;;4830027;29;20032;-84
2023/04/15 02:32:23;;;;;;;15.93;7.32;;;;;;;;;;4821442;29;20030;-83
2023/04/15 02:34:49;;;;;;;20.73;7.45;;;;;;;;;;4801052;29;20137;-81
2023/04/15 02:37:16;;;;;;;12.73;7.28;;;;;;;;;;4814053;29;20040;-83
2023/04/15 02:39:42;;;;;;;14.32;7.45;;;;;;;;;;4819078;29;20097;-82
2023/04/15 02:42:08;;;;;;;13.57;8.15;;;;;;;;;;4835247;29;20033;-85
2023/04/15 02:44:35;;;;;;;11.20;7.25;;;;;;;;;;4816472;29;20538;-81
2023/04/15 02:47:02;;;;;;;20.10;7.18;;;;;;;;;;4819080;29;20453;-82
2023/04/15 02:49:29;;;;;;;14.02;7.50;;;;;;;;;;4832376;29;20053;-83
2023/04/15 02:51:57;;;;;;;12.40;8.18;;;;;;;;;;4804264;29;20040;-82
2023/04/15 02:54:23;;;;;;;12.77;8.15;;;;;;;;;;4810566;29;20034;-81
2023/04/15 02:56:49;;;;;;;13.32;7.88;;;;;;;;;;4813654;29;20038;-81
2023/04/15 02:59:16;;;;;;;12.02;7.30;;;;;;;;;;4813672;29;20026;-82
2023/04/15 03:01:42;;;;;;;12.73;8.25;;;;;;;;;;4825658;29;20103;-82
2023/04/15 03:04:08;;;;;;;12.52;8.30;;;;;;;;;;4834445;29;20091;-83
2023/04/15 03:06:34;;;;;;;15.75;8.02;;;;;;;;;;4809256;29;20175;-79
2023/04/15 03:09:01;;;;;;;14.60;8.05;;;;;;;;;;4834693;29;20068;-83
2023/04/15 03:11:28;;;;;;;15.80;8.68;;;;;;;;;;4813048;29;20054;-83
2023/04/15 03:13:54;;;;;;;14.43;7.82;;;;;;;;;;4829764;29;20053;-81
2023/04/15 03:16:20;;;;;;;13.90;7.90;;;;;;;;;;4813533;29;20026;-81
2023/04/15 03:18:46;;;;;;;17.35;8.30;;;;;;;;;;4821164;29;20072;-82
2023/04/15 03:21:12;;;;;;;14.48;8.88;;;;;;;;;;4830451;29;20507;-83
2023/04/15 03:23:38;;;;;;;13.20;8.73;;;;;;;;;;4818676;29;20043;-81
2023/04/15 03:26:05;;;;;;;17.10;9.75;;;;;;;;;;4834708;29;20062;-83
2023/04/15 03:28:34;;;;;;;13.88;8.57;;;;;;;;;;4813317;29;20033;-81
2023/04/15 03:31:00;;;;;;;14.38;8.23;;;;;;;;;;4800114;29;20117;-82
2023/04/15 03:33:26;;;;;;;15.65;8.75;;;;;;;;;;4812581;29;20129;-80
2023/04/15 03:35:52;;;;;;;14.98;8.45;;;;;;;;;;4814079;29;20034;-78
2023/04/15 03:38:18;;;;;;;11.18;8.60;;;;;;;;;;4831944;29;20030;-78
2023/04/15 03:40:45;;;;;;;14.35;8.55;;;;;;;;;;4816959;29;20068;-80
2023/04/15 03:43:11;;;;;;;15.18;8.75;;;;;;;;;;4818138;29;20030;-80
2023/04/15 03:45:37;;;;;;;15.75;8.40;;;;;;;;;;4818348;29;20034;-80
2023/04/15 03:48:03;;;;;;;14.82;9.07;;;;;;;;;;4819658;29;20100;-81
2023/04/15 03:50:29;;;;;;;18.58;9.15;;;;;;;;;;4829655;29;20033;-80
2023/04/15 03:52:55;;;;;;;15.65;8.98;;;;;;;;;;4812327;29;20052;-80
2023/04/15 03:55:21;;;;;;;11.93;8.20;;;;;;;;;;4815001;29;20027;-80
2023/04/15 03:57:47;;;;;;;19.45;8.57;;;;;;;;;;4803767;29;20098;-81
2023/04/15 04:00:14;;;;;;;15.30;9.13;;;;;;;;;;4815845;29;20035;-80
2023/04/15 04:02:40;;;;;;;14.07;9.18;;;;;;;;;;4799526;29;20054;-81
2023/04/15 04:05:07;;;;;;;11.85;8.65;;;;;;;;;;4818977;29;20442;-82
2023/04/15 04:07:33;;;;;;;15.68;8.80;;;;;;;;;;4812859;29;20079;-83
2023/04/15 04:09:59;;;;;;;15.88;9.10;;;;;;;;;;4817308;29;20488;-82
2023/04/15 04:12:25;;;;;;;15.10;9.30;;;;;;;;;;4816806;29;20161;-81
2023/04/15 04:14:51;;;;;;;13.68;8.50;;;;;;;;;;4809957;29;20053;-80
2023/04/15 04:17:17;;;;;;;14.77;9.70;;;;;;;;;;4816360;29;20041;-80
2023/04/15 04:19:43;;;;;;;14.77;10.82;;;;;;;;;;4816832;29;20030;-81
2023/04/15 04:22:09;;;;;;;14.43;9.48;;;;;;;;;;4812395;29;20113;-81
2023/04/15 04:24:35;;;;;;;14.00;9.40;;;;;;;;;;4805814;29;20048;-80
2023/04/15 04:27:01;;;;;;;15.07;9.40;;;;;;;;;;4818257;29;20042;-81
2023/04/15 04:29:27;;;;;;;19.02;10.52;;;;;;;;;;4821450;29;20030;-80
2023/04/15 04:31:53;;;;;;;15.10;9.68;;;;;;;;;;4818249;29;20030;-80
2023/04/15 04:34:19;;;;;;;12.70;9.52;;;;;;;;;;4820131;29;20056;-79
2023/04/15 04:36:45;;;;;;;16.50;10.15;;;;;;;;;;4820210;29;20095;-80
2023/04/15 04:39:11;;;;;;;16.08;11.18;;;;;;;;;;4821913;29;20087;-81
2023/04/15 04:41:37;;;;;;;14.50;10.25;;;;;;;;;;4838159;29;20480;-80
2023/04/15 04:44:03;;;;;;;14.68;10.43;;;;;;;;;;4819241;29;20125;-81
2023/04/15 04:46:29;;;;;;;16.30;10.90;;;;;;;;;;4819785;29;20065;-80
2023/04/15 04:48:56;;;;;;;18.50;11.63;;;;;;;;;;4833429;29;20029;-80
2023/04/15 04:51:22;;;;;;;14.07;11.30;;;;;;;;;;4802543;29;20419;-80
2023/04/15 04:53:48;;;;;;;16.60;11.68;;;;;;;;;;4804024;29;20152;-80
2023/04/15 04:56:14;;;;;;;18.60;11.55;;;;;;;;;;4818392;29;20133;-79
2023/04/15 04:58:40;;;;;;;17.42;11.57;;;;;;;;;;4816239;29;20030;-78
2023/04/15 05:01:06;;;;;;;16.73;11.75;;;;;;;;;;4819397;29;20096;-80
2023/04/15 05:03:32;;;;;;;17.92;12.55;;;;;;;;;;4816545;29;20040;-81
2023/04/15 05:05:58;;;;;;;18.75;12.40;;;;;;;;;;4828110;29;20030;-83
2023/04/15 05:08:25;;;;;;;18.75;12.07;;;;;;;;;;4832609;29;20055;-78
2023/04/15 05:10:51;;;;;;;17.55;12.40;;;;;;;;;;4829963;29;20042;-82
2023/04/15 05:13:17;;;;;;;16.98;12.45;;;;;;;;;;4833611;29;20061;-81
2023/04/15 05:15:43;;;;;;;19.95;12.43;;;;;;;;;;4825499;29;20201;-81
2023/04/15 05:18:09;;;;;;;21.50;13.85;;;;;;;;;;4806065;29;20042;-78
2023/04/15 05:20:35;;;;;;;21.42;14.25;;;;;;;;;;4834100;29;20038;-80
2023/04/15 05:23:01;;;;;;;20.58;13.13;;;;;;;;;;4833392;29;20034;-80
2023/04/15 05:25:28;;;;;;;19.88;13.10;;;;;;;;;;4816960;29;20048;-80
2023/04/15 05:27:54;;;;;;;20.52;12.98;;;;;;;;;;4818669;29;20038;-77
2023/04/15 05:30:21;;;;;;;20.13;12.43;;;;;;;;;;4817714;29;20063;-80
2023/04/15 05:32:47;;;;;;;16.90;12.30;;;;;;;;;;4819478;29;20044;-81
2023/04/15 05:35:13;;;;;;;19.63;12.40;;;;;;;;;;4830390;29;20069;-81
2023/04/15 05:37:39;;;;;;;18.80;11.82;;;;;;;;;;4817808;29;20170;-81
2023/04/15 05:40:05;;;;;;;15.93;11.00;;;;;;;;;;4818873;29;20120;-82
2023/04/15 05:42:31;;;;;;;15.50;11.00;;;;;;;;;;4808579;29;20194;-80
2023/04/15 05:44:57;;;;;;;14.30;10.50;;;;;;;;;;4834876;29;20030;-81
2023/04/15 05:47:23;;;;;;;16.40;11.18;;;;;;;;;;4819261;29;20503;-82
2023/04/15 05:49:49;;;;;;;14.30;10.48;;;;;;;;;;4804305;29;20144;-80
2023/04/15 05:52:16;;;;;;;15.20;10.52;;;;;;;;;;4802585;29;20433;-77
2023/04/15 05:54:42;;;;;;;18.73;10.77;;;;;;;;;;4834348;29;20547;-81
2023/04/15 05:57:08;;;;;;;13.90;10.88;;;;;;;;;;4803433;29;20072;-84
2023/04/15 05:59:34;;;;;;;15.93;12.18;;;;;;;;;;4803739;29;20488;-82
2023/04/15 06:02:00;;;;;;;14.45;11.15;;;;;;;;;;4817628;29;20134;-82
2023/04/15 06:04:26;;;;;;;12.82;10.30;;;;;;;;;;4817461;29;20045;-80
2023/04/15 06:06:52;;;;;;;16.45;10.75;;;;;;;;;;4816784;29;20042;-79
2023/04/15 06:09:19;;;;;;;14.80;11.45;;;;;;;;;;4816889;29;20499;-83
2023/04/15 06:11:45;;;;;;;13.88;11.00;;;;;;;;;;4826877;29;20105;-81
2023/04/15 06:14:11;;;;;;;13.05;9.88;;;;;;;;;;4819116;29;20046;-88
2023/04/15 06:16:37;;;;;;;13.23;9.80;;;;;;;;;;4827723;29;20113;-85
2023/04/15 06:19:03;;;;;;;14.38;9.75;;;;;;;;;;4816400;29;20496;-84
2023/04/15 06:21:30;;;;;;;14.48;10.18;;;;;;;;;;4824889;29;20077;-82
2023/04/15 06:23:56;;;;;;;34.08;20.02;;;;;;;;;;4829648;29;20034;-78
2023/04/15 06:26:22;;;;;;;32.17;19.10;;;;;;;;;;4801937;29;20069;-78
2023/04/15 06:28:48;;;;;;;12.98;10.55;;;;;;;;;;4829572;29;20033;-79
2023/04/15 06:31:14;;;;;;;13.07;9.48;;;;;;;;;;4821873;29;20041;-80
2023/04/15 06:33:40;;;;;;;13.73;9.57;;;;;;;;;;4821217;29;20484;-79
2023/04/15 06:36:07;;;;;;;13.05;9.82;;;;;;;;;;4804518;29;20030;-79
2023/04/15 06:38:33;;;;;;;14.95;8.90;;;;;;;;;;4816032;29;20407;-78
2023/04/15 06:40:59;;;;;;;16.35;9.40;;;;;;;;;;4835309;29;20069;-78
2023/04/15 06:43:25;;;;;;;15.43;9.73;;;;;;;;;;4831635;29;20044;-79
2023/04/15 06:45:51;;;;;;;13.38;9.35;;;;;;;;;;4842958;29;20042;-84
2023/04/15 06:48:17;;;;;;;13.55;10.48;;;;;;;;;;4821755;29;20136;-79
2023/04/15 06:50:43;;;;;;;14.63;10.43;;;;;;;;;;4810396;29;20026;-85
2023/04/15 06:53:10;;;;;;;13.88;9.55;;;;;;;;;;4821241;29;20034;-79
2023/04/15 06:55:36;;;;;;;12.38;9.77;;;;;;;;;;4837710;29;20034;-80
2023/04/15 06:58:02;;;;;;;14.52;10.23;;;;;;;;;;4802757;29;20038;-82
2023/04/15 07:00:28;;;;;;;16.83;11.38;;;;;;;;;;4807056;29;20042;-79
2023/04/15 07:02:54;;;;;;;16.40;10.50;;;;;;;;;;4808904;29;20506;-81
2023/04/15 07:05:20;;;;;;;13.95;9.85;;;;;;;;;;4836923;29;20087;-82
2023/04/15 07:07:46;;;;;;;13.82;9.38;;;;;;;;;;4825231;29;20034;-87
2023/04/15 07:10:14;;;;;;;16.92;9.18;;;;;;;;;;4805150;29;20034;-87
2023/04/15 07:12:40;;;;;;;12.07;9.13;;;;;;;;;;4832521;29;20076;-90
2023/04/15 07:15:07;;;;;;;11.48;8.77;;;;;;;;;;4821628;29;20034;-90
2023/04/15 07:17:33;;;;;;;14.60;8.90;;;;;;;;;;4824106;29;20033;-85
2023/04/15 07:19:59;;;;;;;10.48;8.60;;;;;;;;;;4810996;29;20130;-85
2023/04/15 07:22:25;;;;;;;12.65;8.52;;;;;;;;;;4806430;29;20034;-83
2023/04/15 07:24:51;;;;;;;11.63;8.63;;;;;;;;;;4814546;29;20034;-86
2023/04/15 07:27:17;;;;;;;11.00;7.97;;;;;;;;;;4822563;29;20029;-83
2023/04/15 07:29:43;;;;;;;14.13;7.88;;;;;;;;;;4839263;29;20041;-82
2023/04/15 07:32:09;;;;;;;11.93;8.45;;;;;;;;;;4813998;29;20029;-79
2023/04/15 07:34:36;;;;;;;11.70;8.05;;;;;;;;;;4829581;29;20074;-86
2023/04/15 07:37:02;;;;;;;10.02;7.18;;;;;;;;;;4836171;29;20388;-83
2023/04/15 07:39:34;;;;;;;7.75;6.55;;;;;;;;;;4800616;29;20034;-84
2023/04/15 07:42:25;;;;;;;10.52;7.45;;;;;;;;;;4796195;29;20057;-81
2023/04/15 07:45:02;;;;;;;8.65;7.68;;;;;;;;;;4835686;29;20476;-82
2023/04/15 07:47:47;;;;;;;11.45;6.88;;;;;;;;;;4816821;29;20034;-81
2023/04/15 07:53:01;;;;;;;7.47;5.47;;;;;;;;;;4795694;29;20203;-81
2023/04/15 07:55:27;;;;;;;10.68;6.45;;;;;;;;;;4770906;29;20035;-85
2023/04/15 07:57:53;;;;;;;13.13;7.78;;;;;;;;;;4785412;29;20471;-86
2023/04/15 08:00:19;;;;;;;7.72;5.57;;;;;;;;;;4790600;29;20047;-84
2023/04/15 08:02:47;;;;;;;7.82;4.72;;;;;;;;;;4802081;29;20049;-83
2023/04/15 08:05:16;;;;;;;6.68;4.35;;;;;;;;;;4779967;29;20043;-86
2023/04/15 08:07:42;;;;;;;7.75;4.20;;;;;;;;;;4781247;29;20050;-85
2023/04/15 08:10:18;;;;;;;6.15;3.35;;;;;;;;;;4808571;29;20050;-86
2023/04/15 08:12:47;;;;;;;9.25;4.72;;;;;;;;;;4787708;29;20199;-85
2023/04/15 08:15:14;;;;;;;5.70;3.20;;;;;;;;;;4786293;29;20119;-86
2023/04/15 08:17:40;;;;;;;5.68;3.30;;;;;;;;;;4783825;29;20122;-81
2023/04/15 08:20:09;;;;;;;4.00;3.20;;;;;;;;;;4786482;29;20045;-82
2023/04/15 08:22:35;;;;;;;7.28;4.47;;;;;;;;;;4821721;29;20304;-81
2023/04/15 08:35:22;;;;;;;5.13;2.80;;;;;;;;;;4678248;30;19947;-80
2023/04/15 08:37:35;;;;;;;10.95;4.25;;;;;;;;;;4732798;30;20459;-81
2023/04/15 08:43:27;;;;;;;8.13;2.92;;;;;;;;;;4818884;29;20041;-83
2023/04/15 08:46:04;;;;;;;10.90;2.97;;;;;;;;;;4829969;29;20034;-82
2023/04/15 08:48:43;;;;;;;4.07;2.97;;;;;;;;;;4819913;29;20130;-83
2023/04/15 08:51:24;;;;;;;5.55;2.95;;;;;;;;;;4811195;29;20370;-84
2023/04/15 08:54:08;;;;;;;9.25;3.45;;;;;;;;;;4821238;29;20057;-83
2023/04/15 09:00:16;;;;;;;4.88;3.40;;;;;;;;;;4750491;29;20118;-85
2023/04/15 09:02:45;;;;;;;5.78;3.20;;;;;;;;;;4761560;29;20076;-85
2023/04/15 09:05:20;;;;;;;5.80;3.35;;;;;;;;;;4816576;29;20046;-88
2023/04/15 09:07:46;;;;;;;4.88;3.20;;;;;;;;;;4819327;29;20125;-87
2023/04/15 09:10:25;;;;;;;5.40;3.60;;;;;;;;;;4819413;29;20042;-86
2023/04/15 09:13:24;;;;;;;5.35;3.17;;;;;;;;;;4818517;29;20054;-84
2023/04/15 09:16:35;;;;;;;3.83;2.55;;;;;;;;;;4786160;29;20053;-85
2023/04/15 09:19:36;;;;;;;;;;;;;;;;;;;;;
2023/04/15 09:22:17;;;;;;;8.70;3.28;;;;;;;;;;4834752;29;20039;-84
2023/04/15 09:24:46;;;;;;;6.80;2.97;;;;;;;;;;4832888;29;20045;-83
2023/04/15 09:30:45;;;;;;;4.65;2.60;;;;;;;;;;4778778;29;20035;-86
2023/04/15 09:33:16;;;;;;;5.03;2.33;;;;;;;;;;4765135;30;20047;-83
2023/04/15 09:36:08;;;;;;;9.05;3.20;;;;;;;;;;4804958;29;20449;-81
2023/04/15 10:07:06;;;;;;;3.22;1.23;;;;;;;;;;4844164;29;20044;-83
2023/04/15 10:09:42;;;;;;;4.10;1.60;;;;;;;;;;4860200;29;20034;-86
2023/04/15 10:12:10;;;;;;;3.63;1.33;;;;;;;;;;4846448;29;20036;-87
2023/04/15 10:14:37;;;;;;;3.90;1.10;;;;;;;;;;4842173;29;20038;-81
2023/04/15 10:34:40;;;;;;;1.45;0.80;;;;;;;;;;4889452;29;20040;-83
2023/04/15 10:37:09;;;;;;;3.80;1.00;;;;;;;;;;4891550;29;20036;-83
2023/04/15 10:39:43;;;;;;;3.95;1.20;;;;;;;;;;5011920;24;20072;-88
2023/04/15 10:42:09;;;;;;;4.55;2.45;;;;;;;;;;4843694;29;20051;-89
2023/04/15 10:44:37;;;;;;;5.47;2.35;;;;;;;;;;4841442;29;20046;-81
2023/04/15 10:47:06;;;;;;;2.13;1.20;;;;;;;;;;4853009;29;20059;-89
2023/04/15 10:49:32;;;;;;;2.85;1.67;;;;;;;;;;4856896;29;20101;-88
2023/04/15 10:51:59;;;;;;;3.55;1.38;;;;;;;;;;4844707;29;20178;-90
2023/04/15 10:54:25;;;;;;;3.30;1.02;;;;;;;;;;4856506;29;20050;-83
2023/04/15 10:57:12;;;;;;;6.38;1.73;;;;;;;;;;4845052;29;20362;-88
2023/04/15 10:59:59;;;;;;;3.95;1.10;;;;;;;;;;4861081;24;20074;-84
2023/04/15 11:02:41;;;;;;;9.30;2.15;;;;;;;;;;4842804;29;20034;-76
2023/04/15 11:05:08;;;;;;;1.92;1.15;;;;;;;;;;4846238;29;20117;-83
2023/04/15 11:07:35;;;;;;;5.57;1.30;;;;;;;;;;4840405;29;20030;-84
2023/04/15 11:10:01;;;;;;;3.65;1.48;;;;;;;;;;4842939;29;20040;-84
2023/04/15 11:12:46;;;;;;;6.53;1.85;;;;;;;;;;4833140;29;20026;-84
2023/04/15 11:15:31;;;;;;;5.88;1.10;;;;;;;;;;4840950;29;20123;-82
2023/04/15 11:18:08;;;;;;;6.00;1.70;;;;;;;;;;4840743;29;20479;-84
2023/04/15 11:20:34;;;;;;;2.63;1.40;;;;;;;;;;4848977;29;20053;-84
2023/04/15 11:23:00;;;;;;;3.35;1.30;;;;;;;;;;4845389;29;20037;-84
2023/04/15 11:25:27;;;;;;;5.65;1.40;;;;;;;;;;4840428;29;20492;-83
2023/04/15 11:27:54;;;;;;;4.05;1.38;;;;;;;;;;4837291;29;20086;-83
2023/04/15 11:30:21;;;;;;;7.65;1.80;;;;;;;;;;4842768;29;20483;-84
2023/04/15 11:32:47;;;;;;;6.30;2.00;;;;;;;;;;4825363;29;20037;-84
2023/04/15 11:35:13;;;;;;;1.70;1.13;;;;;;;;;;4841077;29;20068;-83
2023/04/15 11:37:39;;;;;;;4.30;1.23;;;;;;;;;;4844037;29;20042;-85
2023/04/15 11:40:06;;;;;;;4.53;1.85;;;;;;;;;;4843585;29;20117;-83
2023/04/15 11:42:32;;;;;;;4.38;1.67;;;;;;;;;;4840320;29;20034;-83
2023/04/15 11:45:08;;;;;;;5.95;1.65;;;;;;;;;;4834014;29;20038;-83
2023/04/15 11:47:35;;;;;;;5.15;1.10;;;;;;;;;;4834998;29;20038;-83
2023/04/15 11:50:34;;;;;;;4.32;1.33;;;;;;;;;;4838593;29;20065;-84
2023/04/15 11:53:02;;;;;;;8.82;1.65;;;;;;;;;;4801731;29;20068;-83
2023/04/15 11:55:28;;;;;;;9.05;1.85;;;;;;;;;;4840993;29;20037;-83
2023/04/15 11:58:11;;;;;;;6.53;1.38;;;;;;;;;;4842314;29;20029;-83
2023/04/15 12:00:37;;;;;;;;;;;;;;;;;;4843121;29;20427;-82
2023/04/15 12:03:23;;;;;;;7.22;1.73;;;;;;;;;;4843777;29;19916;-83
2023/04/15 12:06:07;;;;;;;8.00;1.35;;;;;;;;;;4843416;29;20510;-84
2023/04/15 12:08:48;;;;;;;8.63;1.50;;;;;;;;;;4834420;29;20345;-84
2023/04/15 12:11:15;;;;;;;5.70;0.98;;;;;;;;;;4839762;29;20082;-83
2023/04/15 12:13:48;;;;;;;4.57;0.90;;;;;;;;;;4843731;29;20145;-83
2023/04/15 12:16:20;;;;;;;6.78;1.23;;;;;;;;;;4842628;29;20069;-84
2023/04/15 12:18:47;;;;;;;7.60;1.63;;;;;;;;;;4836555;29;20034;-84
2023/04/15 12:21:13;;;;;;;4.50;1.25;;;;;;;;;;4836494;29;20041;-84
2023/04/15 12:23:50;;;;;;;1.92;1.10;;;;;;;;;;4833914;29;20067;-85
2023/04/15 12:26:16;;;;;;;9.35;1.80;;;;;;;;;;4850484;29;20030;-85
2023/04/15 12:28:43;;;;;;;7.47;1.38;;;;;;;;;;4863701;29;20468;-83
2023/04/15 12:31:09;;;;;;;5.93;1.63;;;;;;;;;;4867462;29;20165;-83
2023/04/15 12:33:36;;;;;;;7.13;1.83;;;;;;;;;;4827835;29;21912;-86
2023/04/15 12:36:02;;;;;;;11.48;2.35;;;;;;;;;;4836682;29;20530;-85
2023/04/15 12:38:30;;;;;;;12.18;1.70;;;;;;;;;;4836289;29;20544;-84
2023/04/15 12:40:56;;;;;;;6.38;2.08;;;;;;;;;;4843908;29;20061;-84
2023/04/15 12:43:22;;;;;;;8.43;1.75;;;;;;;;;;4843558;29;20105;-85
2023/04/15 12:45:48;;;;;;;9.32;1.65;;;;;;;;;;4828916;29;20058;-84
2023/04/15 12:48:14;;;;;;;9.23;1.30;;;;;;;;;;4832314;29;20037;-83
2023/04/15 12:50:40;;;;;;;6.50;1.73;;;;;;;;;;4847711;29;20094;-85
2023/04/15 12:53:06;;;;;;;6.75;1.20;;;;;;;;;;4840113;29;20078;-84
2023/04/15 12:55:32;;;;;;;8.88;1.52;;;;;;;;;;4828085;29;20038;-84
2023/04/15 12:57:58;;;;;;;10.73;2.17;;;;;;;;;;4833389;29;20098;-85
2023/04/15 13:00:24;;;;;;;8.02;1.23;;;;;;;;;;4839395;29;20038;-86
2023/04/15 13:02:51;;;;;;;9.95;1.90;;;;;;;;;;4843391;29;20034;-84
2023/04/15 13:05:17;;;;;;;13.07;2.70;;;;;;;;;;4836412;29;20038;-84
2023/04/15 13:07:43;;;;;;;13.98;2.03;;;;;;;;;;4845390;29;20030;-84
2023/04/15 13:10:09;;;;;;;5.30;1.83;;;;;;;;;;4820094;29;20048;-83
2023/04/15 13:12:35;;;;;;;10.25;2.08;;;;;;;;;;4830124;29;20499;-85
2023/04/15 13:15:05;;;;;;;8.18;1.48;;;;;;;;;;4839739;29;20044;-86
2023/04/15 13:17:31;;;;;;;8.60;1.73;;;;;;;;;;4830786;29;20046;-85
2023/04/15 13:19:57;;;;;;;9.15;1.48;;;;;;;;;;4819802;29;20034;-86
2023/04/15 13:22:23;;;;;;;5.70;1.40;;;;;;;;;;4854343;29;20543;-84
2023/04/15 13:24:50;;;;;;;9.75;1.50;;;;;;;;;;4849394;29;20422;-85
2023/04/15 13:27:16;;;;;;;9.85;1.83;;;;;;;;;;4849093;29;20116;-86
2023/04/15 13:29:42;;;;;;;12.10;2.25;;;;;;;;;;4847736;29;20044;-86
2023/04/15 13:32:08;;;;;;;7.03;1.58;;;;;;;;;;4840042;29;20037;-84
2023/04/15 13:34:34;;;;;;;8.18;2.33;;;;;;;;;;4848858;29;20058;-83
2023/04/15 13:37:05;;;;;;;8.50;1.90;;;;;;;;;;4841645;29;20072;-86
2023/04/15 13:39:31;;;;;;;9.15;2.00;;;;;;;;;;4845769;29;20026;-86
2023/04/15 13:41:58;;;;;;;11.25;1.52;;;;;;;;;;4836498;29;20033;-86
2023/04/15 13:44:24;;;;;;;9.20;1.58;;;;;;;;;;4850448;29;20125;-83
2023/04/15 13:46:50;;;;;;;9.20;1.20;;;;;;;;;;4854169;29;20021;-84
2023/04/15 13:49:16;;;;;;;9.50;2.30;;;;;;;;;;4848427;29;20376;-83
2023/04/15 13:51:42;;;;;;;6.18;1.20;;;;;;;;;;4840106;29;20092;-86
2023/04/15 13:54:08;;;;;;;8.45;1.20;;;;;;;;;;4861339;29;20492;-83
2023/04/15 13:56:35;;;;;;;12.43;1.90;;;;;;;;;;4853788;29;20034;-86
2023/04/15 13:59:02;;;;;;;10.23;1.70;;;;;;;;;;4851142;29;20029;-85
2023/04/15 14:01:28;;;;;;;8.93;1.77;;;;;;;;;;4850283;29;20053;-85
2023/04/15 14:03:54;;;;;;;8.30;1.48;;;;;;;;;;4838235;29;20056;-83
2023/04/15 14:06:20;;;;;;;9.43;1.70;;;;;;;;;;4833998;29;20029;-84
2023/04/15 14:08:46;;;;;;;9.93;1.42;;;;;;;;;;4837430;29;20502;-82
2023/04/15 14:11:12;;;;;;;8.13;1.70;;;;;;;;;;4850240;29;20061;-82
2023/04/15 14:13:38;;;;;;;13.75;2.20;;;;;;;;;;4830619;29;20034;-84
2023/04/15 14:16:05;;;;;;;13.40;3.03;;;;;;;;;;4837029;29;20041;-83
2023/04/15 14:18:31;;;;;;;4.63;1.63;;;;;;;;;;4831764;29;20098;-83
2023/04/15 14:20:57;;;;;;;10.95;1.60;;;;;;;;;;4832703;29;20034;-84
2023/04/15 14:23:23;;;;;;;13.85;2.42;;;;;;;;;;4841314;29;20050;-84
2023/04/15 14:25:52;;;;;;;9.30;1.80;;;;;;;;;;4842597;29;20033;-84
2023/04/15 14:28:18;;;;;;;8.55;1.58;;;;;;;;;;4849769;29;20124;-83
2023/04/15 14:30:44;;;;;;;8.68;1.55;;;;;;;;;;4850930;29;20059;-82
2023/04/15 14:33:11;;;;;;;12.90;2.13;;;;;;;;;;4851726;29;20036;-83
2023/04/15 14:35:37;;;;;;;10.23;1.38;;;;;;;;;;4835888;29;20037;-82
2023/04/15 14:38:04;;;;;;;10.93;2.22;;;;;;;;;;4844614;29;20045;-83
2023/04/15 14:40:31;;;;;;;5.93;1.65;;;;;;;;;;4853997;29;20129;-82
2023/04/15 14:42:57;;;;;;;17.08;3.38;;;;;;;;;;4861506;29;20029;-85
2023/04/15 14:45:23;;;;;;;9.10;1.58;;;;;;;;;;4844779;29;20404;-84
2023/04/15 14:47:49;;;;;;;12.77;2.92;;;;;;;;;;4837544;29;20069;-85
2023/04/15 14:50:15;;;;;;;7.80;1.73;;;;;;;;;;4837269;29;20041;-84
2023/04/15 14:52:41;;;;;;;9.30;1.67;;;;;;;;;;4829776;29;20036;-84
2023/04/15 14:55:09;;;;;;;7.95;1.30;;;;;;;;;;4833940;29;20038;-83
2023/04/15 14:57:35;;;;;;;15.75;2.38;;;;;;;;;;4840659;29;20456;-82
2023/04/15 15:00:02;;;;;;;7.85;1.38;;;;;;;;;;4820469;29;20077;-83
2023/04/15 15:02:28;;;;;;;8.35;1.65;;;;;;;;;;4847161;29;20519;-84
2023/04/15 15:04:54;;;;;;;9.68;1.88;;;;;;;;;;4820982;29;20123;-83
2023/04/15 15:07:22;;;;;;;5.32;1.48;;;;;;;;;;4833346;29;20070;-83
2023/04/15 15:09:48;;;;;;;8.82;2.28;;;;;;;;;;4833093;29;20117;-83
2023/04/15 15:12:14;;;;;;;12.52;1.92;;;;;;;;;;4821430;29;20295;-83
2023/04/15 15:14:40;;;;;;;6.38;2.03;;;;;;;;;;4833831;29;20413;-85
2023/04/15 15:17:06;;;;;;;8.95;1.83;;;;;;;;;;4846131;29;20466;-82
2023/04/15 15:19:33;;;;;;;8.65;1.40;;;;;;;;;;4824336;29;20162;-83
2023/04/15 15:21:59;;;;;;;9.05;2.15;;;;;;;;;;4813738;29;20038;-82
2023/04/15 15:24:25;;;;;;;7.38;2.10;;;;;;;;;;4834533;29;20457;-82
2023/04/15 15:26:51;;;;;;;9.70;1.80;;;;;;;;;;4846116;29;20061;-83
2023/04/15 15:29:17;;;;;;;10.45;1.70;;;;;;;;;;4826676;29;20106;-84
2023/04/15 15:31:52;;;;;;;10.07;2.05;;;;;;;;;;4826338;29;20030;-80
2023/04/15 15:40:54;;;;;;;16.02;2.13;;;;;;;;;;4838053;29;20113;-77
2023/04/15 15:43:25;;;;;;;8.57;2.10;;;;;;;;;;4825541;29;20080;-81
2023/04/15 15:45:54;;;;;;;11.05;2.08;;;;;;;;;;4822628;29;20484;-80
2023/04/15 15:48:20;;;;;;;18.20;2.78;;;;;;;;;;4821532;29;20139;-80
2023/04/15 15:50:46;;;;;;;10.13;1.92;;;;;;;;;;4842055;29;20480;-76
2023/04/15 15:56:22;;;;;;;10.70;2.30;;;;;;;;;;4823593;29;20054;-81
2023/04/15 16:02:20;;;;;;;;;;;;;;;;;;;;;